NCAR-RAP Real-Time Weather Data

Output produced by METARs form (08 May 2021  00:59 UTC)
found at http://weather.rap.ucar.edu/surface/
 
KBTL 080053Z 30012G18KT 10SM FEW065 07/01 A2996 RMK AO2 SLP152 T00720006
KBTL 072353Z 31010G22KT 10SM CLR 08/01 A2995 RMK AO2 SLP148 6//// T00830006 10139 20083 50004
KBTL 072253Z 32014KT 10SM FEW037 09/00 A2995 RMK AO2 PK WND 29026/2217 SLP149 T00940000
KBTL 072153Z 30017KT 10SM SCT049 11/M02 A2994 RMK AO2 PK WND 30026/2142 SLP144 T01061017
KBTL 072053Z 29018G23KT 10SM SCT049 12/00 A2994 RMK AO2 SLP143 6//// T01170000 53003
KBTL 071953Z 30017G26KT 10SM BKN050 11/00 A2992 RMK AO2 PK WND 30027/1854 SLP138 T01110000 PNO $
KBTL 071853Z 29017G25KT 10SM FEW042 FEW050 SCT065 13/01 A2992 RMK AO2 RAE1758 SLP135 T01330011 PNO $
KBTL 071753Z 28011G19KT 10SM -RA FEW036 SCT060 BKN075 12/04 A2993 RMK AO2 RAB46 SLP139 6//// T01220044 10128 20022 58011 PNO $
KBTL 071653Z 32008KT 10SM SCT030 BKN055 BKN085 11/03 A2995 RMK AO2 SLP146 T01060033 PNO $
KBTL 071553Z 23009KT 10SM SCT016 OVC050 09/04 A2996 RMK AO2 RAB14E23 SLP149 T00890039 PNO $
KBTL 071453Z 19007KT 10SM FEW060 BKN075 BKN095 08/04 A2996 RMK AO2 SLP151 6//// T00830044 58011 PNO $
KBTL 071353Z 19004KT 10SM FEW002 BKN100 06/04 A2998 RMK AO2 SLP156 T00560044 PNO
KBTL 071312Z 16005KT 3SM BR OVC002 04/03 A2998 RMK AO2 T00390033 PNO
KBTL 071257Z 16006KT 1SM R23/2000VP6000FT BR OVC002 03/03 A2999 RMK AO2 T00330028 PNO
KBTL 071253Z 15006KT M1/4SM R23/2000V4000FT FG OVC002 03/03 A2999 RMK AO2 SLP161 T00330028 PNO
KBTL 071153Z 19005KT M1/4SM R23/1200V2000FT FG VV002 02/02 A3000 RMK AO2 SLP164 6//// 7//// I6000 T00220017 10033 20011 55002 PNO
KBTL 071053Z 17005KT M1/4SM R23/1000V1200FT FG VV002 02/01 A2999 RMK AO2 SLP160 T00220011 PNO
KBTL 070953Z AUTO 18003KT 1/4SM R23/1600V1800FT FG VV002 02/02 A2999 RMK AO2 SLP162 T00220022 PNO
KBTL 070945Z AUTO 14003KT 1/4SM R23/1600FT FG VV002 02/02 A2999 RMK AO2 T00220017 PNO